Flight Track Log - Related Links

Times and Time Zones

All times are in EDT time to prevent confusion due to time zone crossing. See the ASQ4577 flight status page for this flight to view local times or setup timezone preferences in your user account.

Time Position Orientation Groundspeed Altitude Reporting Facility
EDT Latitude Longitude Course Direction KTS MPH feet Rate Location/Type
Thu 07:18:27 PM 41.4172 -81.8375 29° Northeast 169 194 1,700  Level Cleveland Center
Thu 07:20:12 PM 41.5056 -81.7725 29° Northeast 211 243 5,600 2,255 Climbing Cleveland Center
Thu 07:21:12 PM 41.5625 -81.7153 37° Northeast 238 274 7,900 2,200 Climbing Cleveland Center
Thu 07:22:12 PM 41.6172 -81.6581 38° Northeast 261 300 10,000 1,450 Climbing Cleveland Center
Thu 07:23:12 PM 41.6844 -81.5869 38° Northeast 289 333 10,800 1,000 Climbing Cleveland Center
Thu 07:24:12 PM 41.7625 -81.5017 39° Northeast 339 390 12,000 1,412 Climbing Cleveland Center
Thu 07:25:11 PM 41.8361 -81.4025 45° Northeast 363 418 13,600 1,600 Climbing Cleveland Center
Thu 07:26:12 PM 41.8619 -81.2661 76° East 358 412 15,200 1,537 Climbing Cleveland Center
Thu 07:27:12 PM 41.8878 -81.1158 77° East 365 420 16,700 1,450 Climbing Cleveland Center
Thu 07:28:12 PM 41.9072 -80.9767 79° East 372 428 18,100 1,400 Climbing Cleveland Center
Thu 07:29:12 PM 41.9306 -80.8372 77° East 377 434 19,500 1,400 Climbing Cleveland Center
Thu 07:30:12 PM 41.9536 -80.6947 78° East 384 442 20,900 1,412 Climbing Cleveland Center
Thu 07:31:11 PM 41.9767 -80.5414 79° East 398 458 22,300 1,450 Climbing Cleveland Center
Thu 07:32:12 PM 42.0014 -80.3931 77° East 405 466 23,800 1,438 Climbing Cleveland Center
Thu 07:33:12 PM 42.0242 -80.2422 78° East 412 474 25,200 1,412 Climbing Cleveland Center
Thu 07:34:11 PM 42.0486 -80.0883 78° East 412 474 26,600 1,300 Climbing Cleveland Center
Thu 07:35:12 PM 42.0686 -79.9483 79° East 412 474 27,800 700 Climbing Cleveland Center
Thu 07:36:11 PM 42.0928 -79.7914 78° East 419 482 28,000 504 Climbing Cleveland Center
Thu 07:37:11 PM 42.1164 -79.6258 79° East 434 499 28,800 500 Climbing Cleveland Center
Thu 07:38:11 PM 42.1422 -79.4575 78° East 439 505 29,000 99 Climbing Cleveland Center
Thu 07:39:12 PM 42.1672 -79.2778 79° East 462 532 29,000 50 Level Cleveland Center
Thu 07:40:11 PM 42.1900 -79.0978 80° East 474 545 29,100 550 Climbing Cleveland Center
Thu 07:41:12 PM 42.2128 -78.9181 80° East 486 559 30,100 942 Climbing Cleveland Center
Thu 07:42:12 PM 42.2392 -78.7433 78° East 481 554 31,000 454 Climbing Cleveland Center
Thu 07:43:11 PM 42.2611 -78.5631 81° East 481 554 31,000  Level Cleveland Center
Thu 07:44:12 PM 42.2828 -78.3828 81° East 486 559 31,000  Level Cleveland Center
Thu 07:45:11 PM 42.3061 -78.1939 80° East 491 565 31,000  Level Cleveland Center
Thu 07:46:12 PM 42.3292 -78.0019 81° East 499 574 31,000  Level Cleveland Center
Thu 07:47:12 PM 42.3500 -77.8156 81° East 504 580 31,000  Level Cleveland Center
Thu 07:48:12 PM 42.3722 -77.6236 81° East 509 586 31,000 -513 Level Cleveland Center
Thu 07:51:06 PM 42.4356 -77.0600 81° East 492 566 29,000 -513 Descending Boston Center
Thu 07:52:06 PM 42.4553 -76.8814 81° East 473 544 29,000  Level Boston Center
Thu 07:53:06 PM 42.4747 -76.6997 82° East 495 570 29,000  Level Boston Center
Thu 07:54:06 PM 42.4964 -76.5097 81° East 507 583 29,000  Level Boston Center
Thu 07:55:06 PM 42.5153 -76.3219 82° East 516 594 29,000  Level Boston Center
Thu 07:56:06 PM 42.5367 -76.1233 82° East 521 600 29,000  Level Boston Center
Thu 07:57:06 PM 42.5550 -75.9325 83° East 516 594 29,000 -650 Level Boston Center
Thu 07:58:06 PM 42.5733 -75.7392 83° East 521 600 27,700 -1,600 Descending Boston Center
Thu 07:59:06 PM 42.5933 -75.5483 82° East 515 593 25,800 -2,200 Descending Boston Center
Thu 08:00:06 PM 42.6106 -75.3686 83° East 501 577 23,300 -2,650 Descending Boston Center
Thu 08:01:06 PM 42.6275 -75.1972 82° East 480 552 20,500 -2,750 Descending Boston Center
Thu 08:02:06 PM 42.6419 -75.0283 83° East 460 529 17,800 -2,578 Descending Boston Center
Thu 08:03:21 PM 42.6956 -74.8583 67° East 384 442 14,700 -2,450 Descending Boston Center
Thu 08:04:06 PM 42.7250 -74.7492 70° East 397 457 12,900 -2,039 Descending Boston Center
Thu 08:05:04 PM 42.7358 -74.6197 83° East 387 445 11,200 -1,068 Descending Boston Center
Thu 08:06:04 PM 42.7383 -74.4839 89° East 351 404 10,800 -934 Descending Boston Center
Thu 08:07:06 PM 42.7342 -74.3708 93° East 322 371 9,300 -1,672 Descending Boston Center
Thu 08:08:06 PM 42.7108 -74.2597 106° East 278 320 7,400 -1,736 Descending Boston Center
Thu 08:09:07 PM 42.6875 -74.1631 108° East 265 305 5,800 -1,587 Descending Boston Center
Thu 08:10:07 PM 42.6639 -74.0692 109° East 255 293 4,200 -893 Descending Boston Center
Thu 08:11:08 PM 42.6547 -73.9814 98° East 235 270 4,000 -443 Descending Boston Center
Thu 08:12:09 PM 42.6558 -73.8967 89° East 220 253 3,300 -1,140 Descending Boston Center
Thu 08:13:09 PM 42.6733 -73.8208 73° East 192 221 1,700 -1,190 Descending Boston Center
Thu 08:14:10 PM 42.7069 -73.8047 19° North 108 124 900 -787 Descending Boston Center
Thu 08:19:00 PM 42.7491 -73.8020 107° East  Level Estimated

Login

Don't have an account? Register now (free) for customized features, flight alerts, and more!